Time;durP1;ratioP1;P1;durP2;ratioP2;P2;SDS_P1;SDS_P2;PMS_P1;PMS_P2;Temp;Humidity;BMP_temperature;BMP_pressure;BME280_temperature;BME280_humidity;BME280_pressure;Samples;Min_cycle;Max_cycle;Signal;HPM_P1;HPM_P2
2022/04/29 00:09:00;;;;;;;7.63;2.70;;;;;;;;;;20995693;28;20052;-62
2022/04/29 00:19:02;;;;;;;10.20;2.35;;;;;;;;;;20996232;28;20413;-61
2022/04/29 00:29:05;;;;;;;11.27;4.32;;;;;;;;;;20978551;28;20139;-62
2022/04/29 00:39:07;;;;;;;9.82;2.45;;;;;;;;;;20995429;28;20041;-64
2022/04/29 00:49:11;;;;;;;8.82;2.55;;;;;;;;;;20977249;28;20070;-61
2022/04/29 00:59:15;;;;;;;8.03;2.73;;;;;;;;;;20994238;28;20057;-61
2022/04/29 01:09:17;;;;;;;10.20;2.50;;;;;;;;;;20993936;28;20052;-61
2022/04/29 01:19:19;;;;;;;7.63;2.50;;;;;;;;;;20975429;28;20048;-61
2022/04/29 01:29:23;;;;;;;7.15;2.50;;;;;;;;;;20994582;28;20048;-61
2022/04/29 01:39:29;;;;;;;5.60;2.10;;;;;;;;;;21004813;28;20497;-61
2022/04/29 01:49:39;;;;;;;6.10;2.10;;;;;;;;;;21006814;28;20056;-61
2022/04/29 02:00:00;;;;;;;12.80;3.42;;;;;;;;;;21007568;28;20044;-62
2022/04/29 02:10:09;;;;;;;9.82;2.65;;;;;;;;;;21004791;28;20048;-62
2022/04/29 02:20:13;;;;;;;7.60;2.23;;;;;;;;;;21005070;28;20512;-61
2022/04/29 02:30:16;;;;;;;6.23;2.40;;;;;;;;;;21004087;28;20068;-63
2022/04/29 02:40:20;;;;;;;10.93;2.05;;;;;;;;;;21002234;28;20063;-61
2022/04/29 02:50:22;;;;;;;10.23;2.33;;;;;;;;;;21002233;28;20136;-61
2022/04/29 03:00:25;;;;;;;7.25;2.20;;;;;;;;;;21001338;28;20041;-63
2022/04/29 03:10:28;;;;;;;12.20;2.97;;;;;;;;;;20999666;28;20499;-60
2022/04/29 03:20:37;;;;;;;8.82;2.42;;;;;;;;;;21000412;28;20052;-62
2022/04/29 03:30:41;;;;;;;9.38;2.55;;;;;;;;;;20998874;28;20048;-62
2022/04/29 03:40:43;;;;;;;9.98;2.78;;;;;;;;;;20979641;28;20665;-62
2022/04/29 03:50:46;;;;;;;10.00;2.75;;;;;;;;;;20979890;28;20155;-61
2022/04/29 04:00:49;;;;;;;6.88;1.80;;;;;;;;;;20995896;28;20044;-62
2022/04/29 04:10:51;;;;;;;7.05;2.30;;;;;;;;;;20996360;28;20488;-61
2022/04/29 04:20:54;;;;;;;6.22;2.33;;;;;;;;;;20995897;28;20102;-61
2022/04/29 04:30:56;;;;;;;6.45;2.67;;;;;;;;;;20995824;28;20071;-61
2022/04/29 04:41:01;;;;;;;7.72;3.08;;;;;;;;;;20994875;28;20090;-64
2022/04/29 04:51:04;;;;;;;11.00;2.95;;;;;;;;;;20994724;28;20056;-61
2022/04/29 05:01:07;;;;;;;7.53;2.75;;;;;;;;;;20994484;28;20048;-60
2022/04/29 05:11:09;;;;;;;8.43;2.83;;;;;;;;;;21001913;28;20052;-64
2022/04/29 05:21:11;;;;;;;9.43;3.55;;;;;;;;;;21009231;28;20048;-61
2022/04/29 05:31:14;;;;;;;7.25;3.13;;;;;;;;;;21008797;28;20139;-65
2022/04/29 05:51:37;;;;;;;10.30;3.53;;;;;;;;;;21006766;28;20048;-60
2022/04/29 06:01:39;;;;;;;10.55;3.20;;;;;;;;;;21006333;28;20048;-61
2022/04/29 06:11:41;;;;;;;8.60;3.35;;;;;;;;;;21005252;28;20508;-64
2022/04/29 06:21:44;;;;;;;9.57;3.70;;;;;;;;;;21004337;28;20067;-60
2022/04/29 06:31:46;;;;;;;8.77;3.28;;;;;;;;;;21003573;28;20091;-64
2022/04/29 06:41:48;;;;;;;8.77;2.95;;;;;;;;;;21002018;28;20059;-59
2022/04/29 06:51:50;;;;;;;8.40;3.47;;;;;;;;;;20983436;28;20044;-65
2022/04/29 07:01:52;;;;;;;8.07;2.38;;;;;;;;;;21001447;28;20087;-60
2022/04/29 07:11:56;;;;;;;8.95;2.97;;;;;;;;;;20999832;28;20497;-66
2022/04/29 07:21:59;;;;;;;11.80;2.72;;;;;;;;;;20999911;28;20535;-61
2022/04/29 07:32:01;;;;;;;7.07;2.75;;;;;;;;;;20997358;28;20102;-62
2022/04/29 07:42:04;;;;;;;8.48;2.97;;;;;;;;;;20997115;28;20084;-62
2022/04/29 07:52:06;;;;;;;7.82;3.20;;;;;;;;;;20997106;28;20080;-62
2022/04/29 08:02:08;;;;;;;9.63;3.10;;;;;;;;;;20995090;28;20154;-60
2022/04/29 08:12:11;;;;;;;8.38;2.33;;;;;;;;;;20994568;28;20063;-67
2022/04/29 08:22:13;;;;;;;4.75;2.22;;;;;;;;;;20992716;28;20066;-65
2022/04/29 08:32:16;;;;;;;7.82;2.13;;;;;;;;;;20993158;28;20055;-61
2022/04/29 08:42:18;;;;;;;5.45;2.40;;;;;;;;;;20997609;28;20063;-62
2022/04/29 08:52:20;;;;;;;7.53;2.30;;;;;;;;;;20993524;28;20048;-61
2022/04/29 09:02:22;;;;;;;6.10;2.00;;;;;;;;;;21009458;28;20473;-61
2022/04/29 09:12:26;;;;;;;4.38;2.42;;;;;;;;;;21011410;28;20074;-64
2022/04/29 09:22:31;;;;;;;4.18;2.92;;;;;;;;;;20988028;28;20484;-62
2022/04/29 09:32:49;;;;;;;7.57;2.70;;;;;;;;;;20925903;28;20087;-61
2022/04/29 09:42:59;;;;;;;9.13;3.65;;;;;;;;;;20925062;28;20397;-65
2022/04/29 09:53:15;;;;;;;5.18;2.55;;;;;;;;;;20922776;28;20485;-66
2022/04/29 10:03:17;;;;;;;8.00;2.50;;;;;;;;;;20922639;28;20051;-69
2022/04/29 10:13:23;;;;;;;6.15;2.58;;;;;;;;;;20921362;28;20064;-62
2022/04/29 10:23:26;;;;;;;5.80;2.65;;;;;;;;;;20922347;28;20045;-68
2022/04/29 10:33:28;;;;;;;10.77;3.03;;;;;;;;;;20920484;28;20049;-60
2022/04/29 10:43:30;;;;;;;6.78;2.53;;;;;;;;;;20919709;28;20045;-73
2022/04/29 10:53:37;;;;;;;7.13;3.38;;;;;;;;;;20918866;28;20053;-62
2022/04/29 11:03:41;;;;;;;8.88;4.18;;;;;;;;;;20928402;28;20094;-59
2022/04/29 11:13:44;;;;;;;5.35;2.67;;;;;;;;;;20916073;28;20057;-62
2022/04/29 11:34:15;;;;;;;8.40;2.40;;;;;;;;;;20916245;28;20050;-61
2022/04/29 11:44:17;;;;;;;7.43;4.05;;;;;;;;;;20913876;28;20052;-68
2022/04/29 11:54:19;;;;;;;4.90;2.30;;;;;;;;;;20915660;28;20056;-62
2022/04/29 12:04:21;;;;;;;4.05;2.50;;;;;;;;;;20914619;28;20052;-60
2022/04/29 12:14:23;;;;;;;4.78;2.90;;;;;;;;;;20912039;28;20092;-64
2022/04/29 12:24:25;;;;;;;7.78;4.35;;;;;;;;;;20913012;28;20478;-61
2022/04/29 12:45:04;;;;;;;7.32;2.90;;;;;;;;;;20910788;28;20049;-64
2022/04/29 12:55:16;;;;;;;9.98;3.35;;;;;;;;;;20911031;28;20098;-62
2022/04/29 13:05:18;;;;;;;5.60;2.92;;;;;;;;;;20909387;28;20049;-60
2022/04/29 13:15:20;;;;;;;7.13;2.75;;;;;;;;;;20843149;28;20552;-62
2022/04/29 13:25:23;;;;;;;4.97;3.42;;;;;;;;;;20826715;28;20046;-62
2022/04/29 13:35:25;;;;;;;6.32;3.17;;;;;;;;;;20839680;28;20096;-61
2022/04/29 13:45:28;;;;;;;5.10;2.87;;;;;;;;;;20841305;28;20171;-62
2022/04/29 13:55:31;;;;;;;6.15;3.42;;;;;;;;;;20840119;28;20486;-63
2022/04/29 14:05:33;;;;;;;7.07;3.10;;;;;;;;;;20839042;28;20047;-62
2022/04/29 14:15:35;;;;;;;8.23;3.23;;;;;;;;;;20911935;28;20451;-63
2022/04/29 14:25:37;;;;;;;6.73;3.20;;;;;;;;;;20921206;28;20044;-63
2022/04/29 14:35:39;;;;;;;5.43;3.08;;;;;;;;;;20920326;28;20060;-61
2022/04/29 14:45:41;;;;;;;7.73;3.90;;;;;;;;;;20919141;28;20041;-62
2022/04/29 14:55:43;;;;;;;5.63;2.83;;;;;;;;;;20918874;28;20060;-61
2022/04/29 15:05:45;;;;;;;9.33;3.07;;;;;;;;;;20918761;28;20044;-73
2022/04/29 15:15:50;;;;;;;9.18;2.50;;;;;;;;;;20916850;28;20057;-64
2022/04/29 15:25:52;;;;;;;20.77;13.18;;;;;;;;;;20915315;28;20132;-64
2022/04/29 15:35:55;;;;;;;4.97;3.03;;;;;;;;;;20915377;28;20140;-71
2022/04/29 15:45:57;;;;;;;7.00;3.35;;;;;;;;;;20914922;28;20049;-61
2022/04/29 15:56:00;;;;;;;10.40;5.97;;;;;;;;;;20915315;28;20076;-62
2022/04/29 16:06:02;;;;;;;8.88;4.05;;;;;;;;;;20913698;28;20053;-61
2022/04/29 16:16:04;;;;;;;8.07;3.13;;;;;;;;;;20912568;28;20076;-64
2022/04/29 16:26:08;;;;;;;6.57;3.30;;;;;;;;;;20913279;28;20056;-66
2022/04/29 16:36:10;;;;;;;12.17;3.47;;;;;;;;;;20911455;28;20056;-65
2022/04/29 16:46:13;;;;;;;9.30;2.60;;;;;;;;;;20910962;28;20073;-61
2022/04/29 16:56:15;;;;;;;14.02;2.95;;;;;;;;;;20911458;28;20049;-67
2022/04/29 17:06:18;;;;;;;10.48;3.38;;;;;;;;;;20918171;28;20517;-66
2022/04/29 17:16:20;;;;;;;8.40;2.70;;;;;;;;;;20925465;28;20413;-64
2022/04/29 17:26:23;;;;;;;16.15;3.83;;;;;;;;;;20924967;28;20073;-65
2022/04/29 17:36:25;;;;;;;21.53;3.40;;;;;;;;;;20925168;28;20114;-63
2022/04/29 17:46:27;;;;;;;13.40;3.07;;;;;;;;;;20927886;28;20045;-64
2022/04/29 17:56:29;;;;;;;15.77;3.97;;;;;;;;;;20923374;28;20045;-61
2022/04/29 18:06:31;;;;;;;10.03;2.80;;;;;;;;;;20922787;28;20405;-63
2022/04/29 18:16:34;;;;;;;19.25;7.97;;;;;;;;;;20923169;28;20057;-63
2022/04/29 18:26:36;;;;;;;13.75;4.60;;;;;;;;;;20924086;28;20049;-68
2022/04/29 18:36:38;;;;;;;10.52;4.88;;;;;;;;;;20921411;28;20057;-65
2022/04/29 18:46:40;;;;;;;7.82;3.58;;;;;;;;;;20919843;28;20059;-67
2022/04/29 18:56:42;;;;;;;16.58;9.73;;;;;;;;;;20918690;28;20059;-65
2022/04/29 19:06:44;;;;;;;8.70;5.83;;;;;;;;;;20918093;28;20049;-71
2022/04/29 19:16:46;;;;;;;7.97;3.90;;;;;;;;;;20917669;28;20053;-71
2022/04/29 19:26:49;;;;;;;21.27;14.02;;;;;;;;;;20915208;28;20171;-71
2022/04/29 19:36:51;;;;;;;8.03;4.13;;;;;;;;;;20915737;28;20095;-70
2022/04/29 19:46:52;;;;;;;5.60;3.33;;;;;;;;;;20915254;28;20049;-68
2022/04/29 20:07:14;;;;;;;9.35;4.25;;;;;;;;;;20913537;28;20075;-61
2022/04/29 20:17:16;;;;;;;9.15;4.45;;;20.70;42.50;;;;;;20913093;28;20057;-63
2022/04/29 20:27:19;;;;;;;9.25;4.43;;;20.40;43.20;;;;;;20912154;28;20049;-61
2022/04/29 20:37:21;;;;;;;5.10;3.30;;;20.20;43.50;;;;;;20914094;28;20139;-65
2022/04/29 20:47:23;;;;;;;7.03;3.35;;;20.00;43.50;;;;;;20928677;28;20301;-62
2022/04/29 20:57:25;;;;;;;6.88;3.20;;;20.10;43.50;;;;;;20911045;28;20130;-66
2022/04/29 21:07:28;;;;;;;6.57;3.40;;;19.90;43.80;;;;;;20926581;28;20136;-59
2022/04/29 21:17:30;;;;;;;;;;;19.80;43.80;;;;;;20926252;28;20053;-63
2022/04/29 21:27:32;;;;;;;7.25;3.55;;;19.70;43.80;;;;;;20925247;28;19921;-61
2022/04/29 21:37:34;;;;;;;10.73;4.72;;;19.70;43.70;;;;;;20924608;28;20140;-63
2022/04/29 21:47:36;;;;;;;7.97;4.07;;;19.70;43.90;;;;;;20923427;28;20048;-61
2022/04/29 21:57:38;;;;;;;8.75;3.83;;;19.70;43.90;;;;;;20905097;28;20083;-73
2022/04/29 22:07:39;;;;;;;8.10;4.60;;;19.30;45.40;;;;;;20924512;28;20045;-62
2022/04/29 22:17:42;;;;;;;6.82;4.05;;;19.20;46.70;;;;;;20922507;28;20056;-65
2022/04/29 22:27:44;;;;;;;7.20;3.53;;;19.20;46.50;;;;;;20921996;28;20053;-61
2022/04/29 22:37:46;;;;;;;6.82;3.92;;;19.10;46.80;;;;;;20921310;28;20454;-59
2022/04/29 22:47:49;;;;;;;4.82;3.20;;;18.90;47.30;;;;;;20919189;28;20041;-62
2022/04/29 22:57:51;;;;;;;7.68;4.03;;;18.70;47.90;;;;;;20919047;28;20191;-59
2022/04/29 23:07:55;;;;;;;6.82;4.00;;;18.50;48.80;;;;;;20918232;28;20045;-60
2022/04/29 23:28:20;;;;;;;11.13;5.78;;;18.40;50.00;;;;;;20916876;28;20045;-64
2022/04/29 23:38:22;;;;;;;10.98;4.97;;;18.40;50.30;;;;;;20915818;28;20052;-60
2022/04/29 23:48:24;;;;;;;8.95;4.93;;;18.50;50.30;;;;;;20916432;28;20053;-63
2022/04/29 23:58:26;;;;;;;10.80;7.40;;;18.30;50.70;;;;;;20915051;28;20049;-64
